Time;durP1;ratioP1;P1;durP2;ratioP2;P2;SDS_P1;SDS_P2;PMS_P1;PMS_P2;Temp;Humidity;BMP_temperature;BMP_pressure;BME280_temperature;BME280_humidity;BME280_pressure;Samples;Min_cycle;Max_cycle;Signal;HPM_P1;HPM_P2
2024/01/03 00:00:49;;;;;;;1.48;1.05;;;;;;;3.94;100.00;98250.31;4942180;29;20194;-46
2024/01/03 00:03:16;;;;;;;1.45;0.90;;;;;;;3.94;100.00;98245.00;4874760;29;20218;-44
2024/01/03 00:05:42;;;;;;;1.20;0.85;;;;;;;3.94;100.00;98237.06;4935391;29;20199;-43
2024/01/03 00:08:27;;;;;;;0.95;0.90;;;;;;;3.99;100.00;98239.47;4943210;29;20174;-44
2024/01/03 00:10:55;;;;;;;0.80;0.80;;;;;;;3.97;100.00;98228.09;4942069;29;20654;-43
2024/01/03 00:13:29;;;;;;;1.45;0.90;;;;;;;3.97;100.00;98228.09;4940883;29;20758;-43
2024/01/03 00:16:07;;;;;;;0.90;0.90;;;;;;;3.98;100.00;98216.53;4938219;29;20700;-45
2024/01/03 00:18:51;;;;;;;0.63;0.63;;;;;;;4.00;100.00;98228.78;4926143;29;20183;-43
2024/01/03 00:21:22;;;;;;;0.70;0.70;;;;;;;4.00;100.00;98225.25;4943739;29;20190;-44
2024/01/03 00:23:52;;;;;;;1.42;0.80;;;;;;;4.01;100.00;98219.88;4927156;29;20192;-45
2024/01/03 00:26:18;;;;;;;0.95;0.80;;;;;;;4.01;100.00;98217.25;4945276;29;20230;-44
2024/01/03 00:28:45;;;;;;;0.60;0.57;;;;;;;4.04;100.00;98208.28;4941792;29;20286;-44
2024/01/03 00:31:22;;;;;;;0.70;0.30;;;;;;;4.00;100.00;98212.91;4942693;29;20895;-43
2024/01/03 00:33:48;;;;;;;0.60;0.60;;;;;;;4.02;100.00;98210.13;4920970;29;20629;-45
2024/01/03 00:36:15;;;;;;;1.48;0.50;;;;;;;3.99;100.00;98208.53;4929759;29;20187;-44
2024/01/03 00:38:42;;;;;;;0.60;0.57;;;;;;;4.01;100.00;98204.00;4942280;29;20183;-44
2024/01/03 00:41:12;;;;;;;0.60;0.60;;;;;;;4.04;100.00;98189.72;4943404;29;20199;-44
2024/01/03 00:43:38;;;;;;;1.02;0.70;;;;;;;4.05;100.00;98186.16;4945236;28;20261;-43
2024/01/03 00:46:05;;;;;;;0.52;0.52;;;;;;;4.05;100.00;98186.16;4941922;28;20714;-44
2024/01/03 00:48:31;;;;;;;0.85;0.60;;;;;;;4.04;100.00;98187.06;4929279;29;20171;-44
2024/01/03 00:50:57;;;;;;;1.77;0.70;;;;;;;4.05;100.00;98184.34;4940146;29;20278;-45
2024/01/03 00:53:24;;;;;;;1.90;0.75;;;;;;;4.07;100.00;98184.28;4919572;29;20302;-44
2024/01/03 00:55:50;;;;;;;0.70;0.60;;;;;;;4.06;100.00;98186.03;4927693;29;20175;-44
2024/01/03 00:58:16;;;;;;;0.57;0.57;;;;;;;4.07;100.00;98192.22;4944737;29;20607;-44
2024/01/03 01:00:41;;;;;;;1.10;0.70;;;;;;;4.14;100.00;98180.34;4915049;29;20226;-45
2024/01/03 01:03:07;;;;;;;1.02;0.80;;;;;;;4.10;100.00;98195.53;4924820;29;20944;-44
2024/01/03 01:05:33;;;;;;;1.38;0.63;;;;;;;4.16;100.00;98188.22;4937379;29;20307;-43
2024/01/03 01:07:59;;;;;;;1.75;0.75;;;;;;;4.12;100.00;98182.22;4943217;29;20186;-44
2024/01/03 01:10:24;;;;;;;0.70;0.70;;;;;;;4.14;100.00;98188.28;4921891;29;20640;-45
2024/01/03 01:12:50;;;;;;;0.80;0.77;;;;;;;4.17;100.00;98181.97;4921653;29;20195;-45
2024/01/03 01:15:15;;;;;;;0.77;0.75;;;;;;;4.19;100.00;98180.09;4941670;29;20178;-44
2024/01/03 01:17:43;;;;;;;0.60;0.60;;;;;;;4.18;100.00;98171.28;4925733;29;20211;-44
2024/01/03 01:20:09;;;;;;;0.82;0.82;;;;;;;4.21;100.00;98170.25;4927061;29;20226;-44
2024/01/03 01:22:35;;;;;;;0.70;0.70;;;;;;;4.22;100.00;98179.91;4940863;29;20205;-44
2024/01/03 01:25:00;;;;;;;1.65;0.80;;;;;;;4.25;100.00;98164.69;4937983;29;20199;-45
2024/01/03 01:27:26;;;;;;;1.10;1.00;;;;;;;4.33;100.00;98170.44;4943146;29;20643;-43
2024/01/03 01:29:51;;;;;;;2.15;0.90;;;;;;;4.34;100.00;98169.50;4922642;29;20681;-44
2024/01/03 01:32:16;;;;;;;2.67;1.00;;;;;;;4.37;100.00;98164.97;4939579;29;20214;-43
2024/01/03 01:34:42;;;;;;;1.45;0.95;;;;;;;4.34;100.00;98171.28;4923072;29;20592;-45
2024/01/03 01:37:08;;;;;;;2.45;1.00;;;;;;;4.34;100.00;98152.75;4942770;29;20680;-45
2024/01/03 01:39:33;;;;;;;0.80;0.80;;;;;;;4.39;100.00;98155.13;4940589;28;20286;-43
2024/01/03 01:41:59;;;;;;;2.40;1.20;;;;;;;4.40;100.00;98147.09;4941614;29;20939;-45
2024/01/03 01:44:26;;;;;;;2.15;1.10;;;;;;;4.43;100.00;98138.97;4935466;29;20252;-44
2024/01/03 01:46:51;;;;;;;0.95;0.95;;;;;;;4.46;100.00;98146.75;4939131;28;20187;-45
2024/01/03 01:49:18;;;;;;;2.67;1.33;;;;;;;4.46;100.00;98143.22;4939741;29;20263;-45
2024/01/03 01:51:45;;;;;;;2.88;1.30;;;;;;;4.49;100.00;98143.91;4937286;29;20191;-44
2024/01/03 01:54:12;;;;;;;1.52;1.30;;;;;;;4.53;100.00;98149.91;4940249;28;20699;-43
2024/01/03 01:56:39;;;;;;;1.40;1.30;;;;;;;4.56;100.00;98136.47;4942846;29;20178;-44
2024/01/03 01:59:07;;;;;;;3.38;1.55;;;;;;;4.58;100.00;98133.75;4914183;29;20222;-43
2024/01/03 02:01:34;;;;;;;1.65;1.55;;;;;;;4.65;100.00;98132.44;4921408;29;20264;-45
2024/01/03 02:04:03;;;;;;;3.47;1.73;;;;;;;4.63;100.00;98124.56;4928287;29;20249;-44
2024/01/03 02:06:29;;;;;;;2.92;1.83;;;;;;;4.65;100.00;98127.13;4933949;28;20180;-42
2024/01/03 02:08:55;;;;;;;4.90;1.67;;;;;;;4.65;100.00;98127.97;4941365;29;20704;-44
2024/01/03 02:11:20;;;;;;;3.92;2.10;;;;;;;4.64;100.00;98122.78;4941145;29;20183;-44
2024/01/03 02:13:46;;;;;;;3.85;2.13;;;;;;;4.70;100.00;98122.41;4924651;29;20218;-43
2024/01/03 02:16:12;;;;;;;2.30;2.10;;;;;;;4.72;100.00;98109.91;4941380;29;20187;-44
2024/01/03 02:18:39;;;;;;;2.60;2.17;;;;;;;4.72;100.00;98121.41;4941711;29;20190;-45
2024/01/03 02:21:12;;;;;;;3.83;2.70;;;;;;;4.73;100.00;98109.00;4939382;29;20242;-45
2024/01/03 02:23:37;;;;;;;5.68;3.00;;;;;;;4.81;100.00;98116.47;4931598;29;20302;-45
2024/01/03 02:26:03;;;;;;;3.47;3.05;;;;;;;4.86;100.00;98109.97;4939946;29;20266;-43
2024/01/03 02:28:28;;;;;;;5.35;3.40;;;;;;;4.93;100.00;98116.63;4939094;29;20286;-45
2024/01/03 02:30:54;;;;;;;4.00;3.60;;;;;;;5.07;100.00;98110.53;4936294;29;20242;-45
2024/01/03 02:33:19;;;;;;;8.57;5.30;;;;;;;5.28;100.00;98111.00;4940953;28;20241;-45
2024/01/03 02:35:45;;;;;;;6.28;3.72;;;;;;;5.34;100.00;98107.16;4942244;29;20179;-43
2024/01/03 02:38:10;;;;;;;6.57;4.60;;;;;;;5.35;100.00;98099.06;4923924;29;20584;-44
2024/01/03 02:40:36;;;;;;;6.53;3.85;;;;;;;5.37;100.00;98099.81;4935727;29;20199;-43
2024/01/03 02:43:01;;;;;;;4.22;3.83;;;;;;;5.47;100.00;98101.94;4939561;28;20219;-43
2024/01/03 02:45:27;;;;;;;5.63;3.67;;;;;;;5.45;100.00;98110.00;4938671;29;20186;-44
2024/01/03 02:47:52;;;;;;;5.65;3.75;;;;;;;5.47;100.00;98112.56;4920296;29;20194;-44
2024/01/03 02:50:17;;;;;;;6.40;3.58;;;;;;;5.62;100.00;98103.66;4936056;29;20214;-43
2024/01/03 02:52:43;;;;;;;5.95;3.60;;;;;;;5.86;100.00;98108.38;4938191;28;20183;-44
2024/01/03 02:55:08;;;;;;;6.40;3.53;;;;;;;5.75;100.00;98101.94;4941497;29;20190;-43
2024/01/03 02:57:34;;;;;;;4.57;3.75;;;;;;;5.78;100.00;98103.56;4942032;28;20218;-43
2024/01/03 02:59:59;;;;;;;11.57;4.03;;;;;;;5.77;100.00;98108.03;4944505;28;20301;-44
2024/01/03 03:02:25;;;;;;;6.10;4.07;;;;;;;5.75;100.00;98109.03;4943296;29;20183;-45
2024/01/03 03:04:50;;;;;;;6.55;3.70;;;;;;;5.83;100.00;98141.31;4943206;29;20206;-43
2024/01/03 03:07:15;;;;;;;4.65;2.30;;;;;;;5.95;100.00;98116.66;4944451;29;20187;-43
2024/01/03 03:09:41;;;;;;;1.85;1.60;;;;;;;6.04;100.00;98123.19;4940024;29;20198;-44
2024/01/03 03:12:07;;;;;;;2.25;0.82;;;;;;;6.06;100.00;98109.81;4939745;29;20191;-44
2024/01/03 03:14:32;;;;;;;5.22;1.00;;;;;;;6.11;100.00;98113.03;4947568;28;20716;-44
2024/01/03 03:16:58;;;;;;;6.03;1.00;;;;;;;6.09;100.00;98107.81;4942779;29;20276;-45
2024/01/03 03:19:24;;;;;;;3.90;0.90;;;;;;;6.14;100.00;98102.19;4938766;29;20211;-45
2024/01/03 03:21:49;;;;;;;1.58;0.73;;;;;;;6.22;100.00;98117.66;4943104;29;20234;-45
2024/01/03 03:24:15;;;;;;;0.85;0.50;;;;;;;6.19;100.00;98111.59;4939941;29;20225;-45
2024/01/03 03:26:41;;;;;;;1.50;0.70;;;;;;;6.30;100.00;98113.56;4936496;29;20309;-44
2024/01/03 03:29:06;;;;;;;1.63;0.82;;;;;;;6.32;100.00;98109.00;4927404;29;20186;-44
2024/01/03 03:31:32;;;;;;;2.28;0.80;;;;;;;6.34;100.00;98103.56;4941877;29;20183;-43
2024/01/03 03:33:57;;;;;;;3.17;0.82;;;;;;;6.36;100.00;98110.50;4938857;28;20213;-45
2024/01/03 03:36:23;;;;;;;0.82;0.50;;;;;;;6.40;100.00;98100.50;4944232;29;20387;-44
2024/01/03 03:38:48;;;;;;;2.53;0.70;;;;;;;6.35;100.00;98099.97;4938960;29;20188;-45
2024/01/03 03:41:14;;;;;;;3.38;0.75;;;;;;;6.36;100.00;98099.00;4940807;29;20183;-43
2024/01/03 03:43:40;;;;;;;2.75;0.70;;;;;;;6.32;100.00;98094.84;4943448;28;20222;-44
2024/01/03 03:46:11;;;;;;;3.20;0.80;;;;;;;6.30;100.00;98084.31;4941862;29;20187;-43
2024/01/03 03:48:37;;;;;;;2.65;0.60;;;;;;;6.29;100.00;98079.94;4946564;29;20190;-45
2024/01/03 03:51:03;;;;;;;2.50;0.70;;;;;;;6.28;100.00;98075.59;4926723;29;20187;-44
2024/01/03 03:53:29;;;;;;;1.13;0.50;;;;;;;6.27;100.00;98071.22;4925289;29;20728;-45
2024/01/03 03:55:54;;;;;;;0.98;0.40;;;;;;;6.26;100.00;98073.97;4939882;29;20222;-46
2024/01/03 03:58:20;;;;;;;2.03;0.43;;;;;;;6.28;100.00;98066.75;4943132;29;20285;-44
2024/01/03 04:00:45;;;;;;;0.90;0.52;;;;;;;6.22;100.00;98065.34;4941322;29;20214;-44
2024/01/03 04:03:11;;;;;;;1.83;0.60;;;;;;;6.21;100.00;98065.44;4941482;29;20645;-45
2024/01/03 04:05:37;;;;;;;2.22;0.75;;;;;;;6.21;100.00;98068.97;4942482;29;20518;-45
2024/01/03 04:08:04;;;;;;;2.10;0.85;;;;;;;6.20;100.00;98059.28;4942028;28;20199;-45
2024/01/03 04:10:29;;;;;;;1.90;0.38;;;;;;;6.21;100.00;98046.81;4941641;29;20195;-44
2024/01/03 04:12:55;;;;;;;1.55;0.55;;;;;;;6.18;100.00;98055.84;4945781;28;20210;-45
2024/01/03 04:15:24;;;;;;;0.95;0.30;;;;;;;6.22;100.00;98048.53;4944395;29;20262;-44
2024/01/03 04:17:51;;;;;;;4.38;0.50;;;;;;;6.19;100.00;98050.44;4940169;29;20234;-44
2024/01/03 04:20:16;;;;;;;2.05;0.43;;;;;;;6.18;100.00;98039.91;4943028;29;20211;-44
2024/01/03 04:22:43;;;;;;;1.00;0.22;;;;;;;6.19;100.00;98039.81;4941443;29;20178;-45
2024/01/03 04:25:10;;;;;;;1.55;0.40;;;;;;;6.22;100.00;98045.88;4944680;29;20230;-45
2024/01/03 04:27:35;;;;;;;0.98;0.38;;;;;;;6.19;100.00;98036.31;4942509;29;20271;-44
2024/01/03 04:30:02;;;;;;;1.35;0.50;;;;;;;6.19;100.00;98037.16;4948405;29;20270;-45
2024/01/03 04:32:27;;;;;;;1.60;0.50;;;;;;;6.22;100.00;98036.09;4940216;29;20693;-43
2024/01/03 04:34:53;;;;;;;0.80;0.30;;;;;;;6.23;100.00;98052.91;4941297;29;20210;-44
2024/01/03 04:37:18;;;;;;;1.35;0.30;;;;;;;6.26;100.00;98032.28;4941490;29;20191;-43
2024/01/03 04:39:43;;;;;;;1.40;0.45;;;;;;;6.24;100.00;98022.72;4937468;29;20223;-44
2024/01/03 04:42:09;;;;;;;0.43;0.30;;;;;;;6.22;100.00;98025.47;4944684;29;20274;-45
2024/01/03 04:44:35;;;;;;;0.40;0.40;;;;;;;6.21;100.00;98030.88;4943409;29;20264;-46
2024/01/03 04:47:01;;;;;;;0.35;0.35;;;;;;;6.17;100.00;98027.59;4945037;29;20604;-44
2024/01/03 04:49:28;;;;;;;2.80;0.40;;;;;;;6.17;100.00;98016.94;4938918;29;20179;-44
2024/01/03 04:51:54;;;;;;;1.23;0.43;;;;;;;6.17;100.00;98016.94;4944496;29;20265;-43
2024/01/03 04:54:19;;;;;;;0.60;0.43;;;;;;;6.17;100.00;98017.78;4941771;29;20214;-45
2024/01/03 04:56:45;;;;;;;0.57;0.40;;;;;;;6.14;100.00;98003.84;4940022;29;20183;-44
2024/01/03 04:59:11;;;;;;;2.28;0.50;;;;;;;6.12;100.00;98003.09;4939426;29;20218;-43
2024/01/03 05:01:37;;;;;;;1.35;0.50;;;;;;;6.11;100.00;98004.91;4931196;29;20543;-43
2024/01/03 05:04:02;;;;;;;1.27;0.50;;;;;;;6.13;100.00;98000.34;4943363;28;20679;-44
2024/01/03 05:06:28;;;;;;;0.77;0.40;;;;;;;6.11;100.00;97998.75;4944568;29;20201;-44
2024/01/03 05:08:53;;;;;;;0.38;0.38;;;;;;;6.09;100.00;97982.88;4944084;29;20564;-44
2024/01/03 05:11:19;;;;;;;2.80;0.55;;;;;;;6.09;100.00;97993.50;4940340;29;20187;-43
2024/01/03 05:13:44;;;;;;;0.20;0.20;;;;;;;6.09;100.00;97988.19;4961579;23;20245;-43
2024/01/03 05:16:10;;;;;;;0.15;0.10;;;;;;;6.08;100.00;97994.47;4959219;28;20189;-39
2024/01/03 05:18:36;;;;;;;1.58;0.50;;;;;;;6.10;100.00;97984.59;4958264;28;20616;-39
2024/01/03 05:21:02;;;;;;;0.40;0.40;;;;;;;6.10;100.00;97983.72;4960365;28;20209;-40
2024/01/03 05:23:27;;;;;;;3.08;0.52;;;;;;;6.10;100.00;97975.75;4961406;28;20582;-39
2024/01/03 05:25:53;;;;;;;1.00;0.17;;;;;;;6.07;100.00;97982.13;4961655;28;20269;-42
2024/01/03 05:28:18;;;;;;;0.20;0.20;;;;;;;6.10;100.00;97967.78;4963779;28;20241;-41
2024/01/03 05:30:44;;;;;;;0.50;0.30;;;;;;;6.08;100.00;97965.25;4928020;28;20182;-41
2024/01/03 05:33:10;;;;;;;0.28;0.20;;;;;;;6.08;100.00;97978.53;4962312;28;20213;-40
2024/01/03 05:35:35;;;;;;;3.30;0.68;;;;;;;6.12;100.00;97972.06;4964301;28;20285;-40
2024/01/03 05:38:00;;;;;;;0.68;0.40;;;;;;;6.07;100.00;97960.88;4958900;28;20552;-41
2024/01/03 05:40:26;;;;;;;0.93;0.32;;;;;;;6.09;100.00;97964.28;4959393;28;20554;-39
2024/01/03 05:42:51;;;;;;;1.48;0.45;;;;;;;6.12;100.00;97952.56;4963989;28;20195;-43
2024/01/03 05:45:17;;;;;;;0.90;0.32;;;;;;;6.09;100.00;97958.97;4958497;28;20194;-40
2024/01/03 05:47:42;;;;;;;1.05;0.45;;;;;;;6.09;100.00;97950.97;4959096;28;20205;-42
2024/01/03 05:50:08;;;;;;;1.27;0.40;;;;;;;6.14;100.00;97951.56;4956437;28;20221;-40
2024/01/03 05:52:35;;;;;;;0.95;0.30;;;;;;;6.14;100.00;97959.53;4956748;28;20210;-44
2024/01/03 05:55:01;;;;;;;0.60;0.40;;;;;;;6.11;100.00;97943.75;4960777;28;20190;-43
2024/01/03 05:57:26;;;;;;;1.23;0.40;;;;;;;6.10;100.00;97951.81;4958722;28;20182;-42
2024/01/03 05:59:52;;;;;;;2.25;0.47;;;;;;;6.11;100.00;97953.56;4962292;28;20287;-38
2024/01/03 06:02:17;;;;;;;0.90;0.20;;;;;;;6.13;100.00;97949.00;4956191;28;20657;-44
2024/01/03 06:04:44;;;;;;;1.17;0.30;;;;;;;6.09;100.00;97950.13;4962901;28;20213;-43
2024/01/03 06:07:10;;;;;;;1.38;0.30;;;;;;;6.11;100.00;97953.56;4944916;28;20190;-40
2024/01/03 06:09:36;;;;;;;1.05;0.40;;;;;;;6.05;100.00;97969.91;4959842;28;20178;-42
2024/01/03 06:12:02;;;;;;;0.57;0.25;;;;;;;6.04;100.00;97934.50;4944892;28;20266;-44
2024/01/03 06:14:27;;;;;;;0.40;0.40;;;;;;;5.99;100.00;97939.25;4960188;28;20292;-42
2024/01/03 06:16:53;;;;;;;0.20;0.13;;;;;;;6.01;100.00;97952.44;4957624;28;20217;-38
2024/01/03 06:19:18;;;;;;;0.95;0.57;;;;;;;6.00;100.00;97937.47;4963978;28;20217;-41
2024/01/03 06:21:44;;;;;;;1.88;0.35;;;;;;;6.01;100.00;97957.75;4959611;28;20262;-41
2024/01/03 06:24:09;;;;;;;1.23;0.45;;;;;;;6.00;100.00;97951.59;4960569;28;20912;-39
2024/01/03 06:26:35;;;;;;;0.50;0.50;;;;;;;6.00;100.00;97937.47;4958811;28;20195;-42
2024/01/03 06:29:01;;;;;;;4.18;0.40;;;;;;;6.01;100.00;97936.50;4960051;28;20197;-43
2024/01/03 06:31:26;;;;;;;1.27;0.50;;;;;;;5.99;100.00;97957.84;4957661;28;20182;-43
2024/01/03 06:33:52;;;;;;;1.88;0.22;;;;;;;5.96;100.00;97960.72;4957629;28;20210;-41
2024/01/03 06:36:19;;;;;;;0.65;0.30;;;;;;;5.97;100.00;97970.41;4961457;28;20190;-40
2024/01/03 06:38:44;;;;;;;1.92;0.43;;;;;;;5.99;100.00;97965.81;4956743;28;20182;-41
2024/01/03 06:41:10;;;;;;;1.00;0.50;;;;;;;6.01;100.00;97963.06;4963140;28;20202;-43
2024/01/03 06:43:35;;;;;;;1.45;0.38;;;;;;;5.99;100.00;97965.81;4955516;28;20216;-40
2024/01/03 06:46:01;;;;;;;3.03;0.30;;;;;;;6.03;100.00;97967.34;4956753;28;20193;-40
2024/01/03 06:48:26;;;;;;;2.17;0.45;;;;;;;6.00;100.00;97962.22;4955012;28;20265;-44
2024/01/03 06:50:52;;;;;;;0.32;0.32;;;;;;;6.01;100.00;97963.06;4957532;28;20217;-42
2024/01/03 06:53:18;;;;;;;2.25;0.43;;;;;;;6.00;100.00;97964.88;4960710;28;20210;-40
2024/01/03 06:55:44;;;;;;;0.20;0.10;;;;;;;6.01;100.00;97969.22;4959222;28;20187;-39
2024/01/03 06:58:09;;;;;;;1.27;0.40;;;;;;;6.01;100.00;97963.06;4957928;28;20260;-43
2024/01/03 07:00:34;;;;;;;1.50;0.57;;;;;;;6.01;100.00;97974.53;4965830;28;20205;-42
2024/01/03 07:03:01;;;;;;;1.02;0.35;;;;;;;6.03;100.00;97970.00;4961863;28;20264;-42
2024/01/03 07:05:26;;;;;;;6.63;1.33;;;;;;;6.06;100.00;97983.09;4962598;28;20185;-41
2024/01/03 07:07:52;;;;;;;2.20;0.40;;;;;;;6.08;100.00;97983.84;4960590;28;20241;-42
2024/01/03 07:10:17;;;;;;;2.10;0.57;;;;;;;6.08;100.00;97978.53;4961812;28;20182;-43
2024/01/03 07:12:43;;;;;;;3.72;1.10;;;;;;;6.08;100.00;97980.31;4947309;28;20218;-41
2024/01/03 07:15:09;;;;;;;9.10;1.23;;;;;;;6.07;100.00;97981.28;4964665;28;20700;-40
2024/01/03 07:17:34;;;;;;;5.22;0.80;;;;;;;6.08;100.00;97997.13;4958421;28;20210;-43
2024/01/03 07:20:00;;;;;;;2.42;0.90;;;;;;;6.08;100.00;97998.91;4961885;28;20236;-42
2024/01/03 07:22:25;;;;;;;8.68;1.35;;;;;;;6.06;100.00;97990.22;4961487;28;20196;-44
2024/01/03 07:24:51;;;;;;;4.85;0.95;;;;;;;6.07;100.00;97995.41;4962599;28;20210;-43
2024/01/03 07:27:16;;;;;;;6.63;1.10;;;;;;;6.07;100.00;97997.22;4948775;28;20265;-42
2024/01/03 07:29:42;;;;;;;4.93;0.93;;;;;;;6.10;100.00;98002.31;4944987;28;20182;-39
2024/01/03 07:32:08;;;;;;;4.07;0.90;;;;;;;6.14;100.00;97996.75;4970920;28;20190;-41
2024/01/03 07:34:33;;;;;;;5.13;0.85;;;;;;;6.09;100.00;97998.81;4971379;28;20767;-39
2024/01/03 07:36:59;;;;;;;3.80;1.00;;;;;;;6.13;100.00;98000.34;4972790;28;20641;-38
2024/01/03 07:39:24;;;;;;;7.00;1.20;;;;;;;6.17;100.00;98007.16;4963804;28;20210;-40
2024/01/03 07:41:51;;;;;;;7.18;1.40;;;;;;;6.20;100.00;98006.09;4962433;28;20175;-39
2024/01/03 07:44:17;;;;;;;10.63;1.05;;;;;;;6.26;100.00;98016.34;4946251;28;20253;-43
2024/01/03 07:46:42;;;;;;;5.72;1.10;;;;;;;6.25;100.00;98001.31;4957282;28;20202;-42
2024/01/03 07:49:08;;;;;;;3.10;0.90;;;;;;;6.28;100.00;97985.19;4966649;28;20631;-40
2024/01/03 07:51:38;;;;;;;6.75;0.85;;;;;;;6.25;100.00;98001.31;4958632;28;20174;-42
2024/01/03 07:54:07;;;;;;;4.05;1.42;;;;;;;6.28;100.00;98010.94;4969052;28;20224;-41
2024/01/03 07:56:32;;;;;;;6.35;1.17;;;;;;;6.32;100.00;98004.44;4964649;28;20214;-40
2024/01/03 07:58:58;;;;;;;4.30;0.90;;;;;;;6.33;100.00;98022.09;4967561;28;20949;-38
2024/01/03 08:01:23;;;;;;;5.07;0.77;;;;;;;6.30;100.00;98017.00;4962670;28;20196;-40
2024/01/03 08:03:49;;;;;;;5.97;0.80;;;;;;;6.27;100.00;98012.72;4965746;28;20288;-39
2024/01/03 08:06:20;;;;;;;3.13;0.82;;;;;;;6.31;100.00;98021.34;4956833;28;20190;-38
2024/01/03 08:08:46;;;;;;;4.25;0.80;;;;;;;6.29;100.00;98018.78;4962023;28;20637;-42
2024/01/03 08:11:12;;;;;;;3.15;0.73;;;;;;;6.33;100.00;98016.78;4962453;28;20197;-40
2024/01/03 08:13:37;;;;;;;5.63;1.05;;;;;;;6.31;100.00;98027.50;4959971;28;20253;-40
2024/01/03 08:16:06;;;;;;;3.95;0.90;;;;;;;6.35;100.00;98030.84;4962096;28;20221;-39
2024/01/03 08:18:32;;;;;;;3.53;0.85;;;;;;;6.31;100.00;98018.69;4963026;28;20186;-40
2024/01/03 08:20:57;;;;;;;3.25;0.90;;;;;;;6.30;100.00;98023.16;4964408;28;20210;-39
2024/01/03 08:23:23;;;;;;;7.47;0.85;;;;;;;6.29;100.00;98008.16;4962052;28;20337;-43
2024/01/03 08:25:48;;;;;;;3.72;1.05;;;;;;;6.30;100.00;98015.19;4946334;28;20629;-40
2024/01/03 08:28:14;;;;;;;2.53;1.00;;;;;;;6.31;100.00;98016.03;4966148;28;20197;-42
2024/01/03 08:30:40;;;;;;;4.05;1.00;;;;;;;6.29;100.00;98020.59;4965101;28;20240;-44
2024/01/03 08:33:06;;;;;;;4.10;0.85;;;;;;;6.29;100.00;98016.13;4965460;28;20217;-41
2024/01/03 08:35:31;;;;;;;4.78;0.90;;;;;;;6.27;100.00;98015.38;4964051;28;20178;-40
2024/01/03 08:37:57;;;;;;;2.15;0.90;;;;;;;6.32;100.00;98028.34;4961108;28;20162;-40
2024/01/03 08:40:22;;;;;;;3.55;1.02;;;;;;;6.31;100.00;98024.84;4966899;28;20293;-41
2024/01/03 08:42:48;;;;;;;3.38;0.80;;;;;;;6.29;100.00;98017.94;4964568;28;20282;-42
2024/01/03 08:45:13;;;;;;;1.75;0.63;;;;;;;6.27;100.00;98006.53;4962480;28;20182;-38
2024/01/03 08:47:39;;;;;;;6.95;1.05;;;;;;;6.26;100.00;98008.34;4963775;28;20214;-43
2024/01/03 08:50:05;;;;;;;3.50;0.98;;;;;;;6.25;100.00;98013.78;4961225;28;20228;-42
2024/01/03 08:52:30;;;;;;;4.13;0.80;;;;;;;6.27;100.00;98017.19;4962946;28;20189;-40
2024/01/03 08:54:56;;;;;;;3.95;1.00;;;;;;;6.29;100.00;98016.13;4964240;28;20216;-41
2024/01/03 08:57:22;;;;;;;2.30;0.73;;;;;;;6.26;100.00;98003.03;4963905;28;20209;-39
2024/01/03 08:59:47;;;;;;;6.25;0.90;;;;;;;6.27;100.00;98019.84;4946731;28;20245;-40
2024/01/03 09:02:13;;;;;;;2.22;0.65;;;;;;;6.27;100.00;98023.34;4965310;28;20229;-39
2024/01/03 09:04:40;;;;;;;3.50;0.88;;;;;;;6.32;100.00;98023.03;4962389;28;20236;-41
2024/01/03 09:07:06;;;;;;;7.97;1.25;;;;;;;6.32;100.00;98004.44;4950617;28;20179;-39
2024/01/03 09:09:31;;;;;;;3.70;1.00;;;;;;;6.28;100.00;98016.25;4962155;28;20200;-39
2024/01/03 09:11:57;;;;;;;2.67;0.93;;;;;;;6.27;100.00;98017.19;4964725;28;20259;-42
2024/01/03 09:14:22;;;;;;;3.03;0.75;;;;;;;6.32;100.00;98023.03;4966680;28;20210;-42
2024/01/03 09:16:48;;;;;;;2.92;0.77;;;;;;;6.29;100.00;98021.44;4952302;28;20186;-43
2024/01/03 09:19:14;;;;;;;1.00;0.50;;;;;;;6.29;100.00;98026.75;4954866;28;20206;-43
2024/01/03 09:21:44;;;;;;;3.72;0.75;;;;;;;6.28;100.00;98025.06;4953725;29;20193;-39
2024/01/03 09:24:09;;;;;;;6.00;0.82;;;;;;;6.27;100.00;98015.38;4953699;29;20230;-42
2024/01/03 09:26:35;;;;;;;6.82;0.82;;;;;;;6.35;100.00;98030.84;4953768;29;20553;-42
2024/01/03 09:29:01;;;;;;;6.88;0.77;;;;;;;6.28;100.00;98026.88;4954024;29;20194;-41
2024/01/03 09:31:26;;;;;;;3.10;0.70;;;;;;;6.30;100.00;98027.63;4953859;29;20217;-40
2024/01/03 09:33:52;;;;;;;5.63;0.75;;;;;;;6.33;100.00;98040.72;4953609;29;20833;-38
2024/01/03 09:36:18;;;;;;;2.72;1.00;;;;;;;6.35;100.00;98036.16;4936508;29;20601;-40
2024/01/03 09:38:44;;;;;;;3.97;1.17;;;;;;;6.37;100.00;98026.28;4954291;29;20583;-40
2024/01/03 09:41:12;;;;;;;4.20;0.77;;;;;;;6.32;100.00;98039.00;4953867;29;20210;-39
2024/01/03 09:43:45;;;;;;;3.53;1.02;;;;;;;6.38;100.00;98033.28;4953711;29;20198;-42
2024/01/03 09:46:11;;;;;;;2.70;1.13;;;;;;;6.31;100.00;98035.50;4936637;29;20190;-43
2024/01/03 09:48:41;;;;;;;4.78;1.50;;;;;;;6.32;100.00;98044.31;4952364;29;20202;-41
2024/01/03 09:51:10;;;;;;;3.13;0.65;;;;;;;6.32;100.00;98036.34;4953534;29;20226;-41
2024/01/03 09:53:37;;;;;;;4.68;0.95;;;;;;;6.32;100.00;98046.97;4953281;29;20210;-40
2024/01/03 09:56:02;;;;;;;3.15;0.98;;;;;;;6.37;100.00;98044.88;4953636;29;20206;-40
2024/01/03 09:58:28;;;;;;;8.52;0.98;;;;;;;6.32;100.00;98034.56;4953567;29;20274;-42
2024/01/03 10:00:54;;;;;;;3.38;0.98;;;;;;;6.31;100.00;98048.78;4953278;29;20280;-40
2024/01/03 10:03:20;;;;;;;4.28;1.17;;;;;;;6.34;100.00;98055.69;4953302;29;20211;-40
2024/01/03 10:05:45;;;;;;;2.78;1.35;;;;;;;6.40;100.00;98068.59;4953190;29;20185;-40
2024/01/03 10:08:16;;;;;;;7.28;1.20;;;;;;;6.35;100.00;98068.06;4952173;28;20170;-40
2024/01/03 10:10:45;;;;;;;5.20;1.10;;;;;;;6.39;100.00;98062.44;4953021;29;20179;-42
2024/01/03 10:13:16;;;;;;;5.85;1.13;;;;;;;6.39;100.00;98053.63;4952891;29;20210;-41
2024/01/03 10:15:45;;;;;;;7.20;2.70;;;;;;;6.39;100.00;98051.81;4952865;29;20564;-40
2024/01/03 10:18:15;;;;;;;9.10;3.55;;;;;;;6.51;100.00;98062.56;4952916;29;20171;-38
2024/01/03 10:20:41;;;;;;;4.60;1.63;;;;;;;6.53;100.00;98060.66;4953181;29;20191;-40
2024/01/03 10:23:09;;;;;;;7.32;2.22;;;;;;;6.52;100.00;98065.16;4952768;29;20205;-43
2024/01/03 10:25:38;;;;;;;7.40;1.55;;;;;;;6.62;100.00;98073.34;4953010;29;20173;-43
2024/01/03 10:28:05;;;;;;;4.78;1.20;;;;;;;6.63;100.00;98058.28;4953031;29;20704;-40
2024/01/03 10:30:31;;;;;;;8.60;2.13;;;;;;;6.61;100.00;98069.00;4953478;29;20340;-40
2024/01/03 10:33:08;;;;;;;4.00;1.00;;;;;;;6.62;100.00;98067.19;4952877;29;20559;-42
2024/01/03 10:35:41;;;;;;;5.00;0.75;;;;;;;6.65;100.00;98059.00;4952852;29;20175;-42
2024/01/03 10:38:06;;;;;;;3.13;1.20;;;;;;;6.63;100.00;98044.97;4952950;29;21004;-42
2024/01/03 10:40:33;;;;;;;2.72;0.85;;;;;;;6.61;100.00;98063.69;4952903;29;20303;-41
2024/01/03 10:43:00;;;;;;;3.63;0.90;;;;;;;6.61;100.00;98063.69;4953123;29;20207;-38
2024/01/03 10:45:27;;;;;;;2.67;1.00;;;;;;;6.61;100.00;98066.34;4952843;29;20197;-42
2024/01/03 10:47:53;;;;;;;4.32;1.25;;;;;;;6.62;100.00;98059.22;4953000;29;20194;-40
2024/01/03 10:50:20;;;;;;;7.13;1.20;;;;;;;6.64;100.00;98067.94;4953331;29;20155;-41
2024/01/03 10:52:46;;;;;;;6.50;1.35;;;;;;;6.70;100.00;98054.22;4952687;29;20167;-39
2024/01/03 10:55:20;;;;;;;4.38;0.93;;;;;;;6.68;100.00;98074.78;4952762;29;20187;-39
2024/01/03 10:58:01;;;;;;;5.25;1.25;;;;;;;6.62;100.00;98069.84;4952653;29;20232;-40
2024/01/03 11:00:30;;;;;;;4.50;1.33;;;;;;;6.64;100.00;98073.25;4952441;29;20238;-40
2024/01/03 11:03:26;;;;;;;6.85;1.08;;;;;;;6.63;100.00;98066.25;4952654;29;20293;-41
2024/01/03 11:06:01;;;;;;;6.75;1.02;;;;;;;6.63;100.00;98063.59;4952631;29;20171;-38
2024/01/03 11:08:38;;;;;;;9.40;1.45;;;;;;;6.67;100.00;98065.06;4952422;29;20189;-42
2024/01/03 11:11:04;;;;;;;4.65;0.88;;;;;;;6.61;100.00;98071.66;4952508;29;20185;-41
2024/01/03 11:13:30;;;;;;;8.70;1.02;;;;;;;6.65;100.00;98067.84;5034630;23;20220;-45
2024/01/03 11:16:02;;;;;;;4.15;0.82;;;;;;;6.70;100.00;98073.72;4980607;28;20189;-42
2024/01/03 11:18:39;;;;;;;3.83;1.10;;;;;;;6.69;100.00;98056.06;4981429;28;20217;-43
2024/01/03 11:21:21;;;;;;;9.52;1.38;;;;;;;6.66;100.00;98072.19;4987953;28;20263;-44
2024/01/03 11:23:46;;;;;;;5.68;1.30;;;;;;;6.66;100.00;98069.53;4981878;28;20214;-44
2024/01/03 11:26:12;;;;;;;3.63;1.13;;;;;;;6.68;100.00;98069.44;4987007;28;20188;-44
2024/01/03 11:28:37;;;;;;;8.55;1.35;;;;;;;6.73;100.00;98062.00;4971604;28;20400;-45
2024/01/03 11:31:04;;;;;;;8.13;1.33;;;;;;;6.73;100.00;98057.53;4987007;28;20665;-45